sensor_id;sensor_type;location;lat;lon;timestamp;pressure;altitude;pressure_sealevel;temperature;humidity
39769;BME280;38939;47.824;14.642;2023-09-08T00:00:20;97239.06;;;18.19;66.96
39769;BME280;38939;47.824;14.642;2023-09-08T00:01:22;97241.94;;;18.17;66.98
39769;BME280;38939;47.824;14.642;2023-09-08T00:02:25;97235.09;;;18.16;66.29
39769;BME280;38939;47.824;14.642;2023-09-08T00:03:27;97235.31;;;18.15;65.85
39769;BME280;38939;47.824;14.642;2023-09-08T00:04:29;97235.31;;;18.15;66.01
39769;BME280;38939;47.824;14.642;2023-09-08T00:05:31;97242.22;;;18.16;65.79
39769;BME280;38939;47.824;14.642;2023-09-08T00:06:33;97230.59;;;18.17;66.29
39769;BME280;38939;47.824;14.642;2023-09-08T00:07:35;97237.50;;;18.18;66.18
39769;BME280;38939;47.824;14.642;2023-09-08T00:08:37;97236.38;;;18.14;66.59
39769;BME280;38939;47.824;14.642;2023-09-08T00:09:39;97231.00;;;18.09;66.34
39769;BME280;38939;47.824;14.642;2023-09-08T00:10:41;97236.28;;;18.09;66.14
39769;BME280;38939;47.824;14.642;2023-09-08T00:11:43;97236.06;;;18.10;65.86
39769;BME280;38939;47.824;14.642;2023-09-08T00:12:44;97234.53;;;18.14;65.79
39769;BME280;38939;47.824;14.642;2023-09-08T00:13:46;97224.19;;;18.13;65.70
39769;BME280;38939;47.824;14.642;2023-09-08T00:14:48;97233.25;;;18.17;65.53
39769;BME280;38939;47.824;14.642;2023-09-08T00:15:50;97231.38;;;18.17;65.44
39769;BME280;38939;47.824;14.642;2023-09-08T00:16:52;97229.81;;;18.16;65.18
39769;BME280;38939;47.824;14.642;2023-09-08T00:17:56;97231.94;;;18.19;65.15
39769;BME280;38939;47.824;14.642;2023-09-08T00:18:58;97228.28;;;18.21;65.59
39769;BME280;38939;47.824;14.642;2023-09-08T00:20:00;97230.69;;;18.22;65.11
39769;BME280;38939;47.824;14.642;2023-09-08T00:21:02;97227.53;;;18.25;64.90
39769;BME280;38939;47.824;14.642;2023-09-08T00:22:04;97220.16;;;18.27;64.52
39769;BME280;38939;47.824;14.642;2023-09-08T00:23:08;97223.59;;;18.28;64.17
39769;BME280;38939;47.824;14.642;2023-09-08T00:24:10;97232.09;;;18.30;64.93
39769;BME280;38939;47.824;14.642;2023-09-08T00:25:12;97225.22;;;18.29;64.45
39769;BME280;38939;47.824;14.642;2023-09-08T00:26:14;97219.69;;;18.30;64.44
39769;BME280;38939;47.824;14.642;2023-09-08T00:27:16;97227.34;;;18.32;64.50
39769;BME280;38939;47.824;14.642;2023-09-08T00:28:18;97226.34;;;18.33;64.40
39769;BME280;38939;47.824;14.642;2023-09-08T00:29:20;97226.34;;;18.33;64.54
39769;BME280;38939;47.824;14.642;2023-09-08T00:30:21;97221.84;;;18.33;64.33
39769;BME280;38939;47.824;14.642;2023-09-08T00:31:24;97215.25;;;18.36;64.15
39769;BME280;38939;47.824;14.642;2023-09-08T00:32:25;97219.53;;;18.37;64.01
39769;BME280;38939;47.824;14.642;2023-09-08T00:33:27;97215.84;;;18.38;63.97
39769;BME280;38939;47.824;14.642;2023-09-08T00:34:29;97215.03;;;18.37;64.04
39769;BME280;38939;47.824;14.642;2023-09-08T00:35:31;97221.38;;;18.36;64.02
39769;BME280;38939;47.824;14.642;2023-09-08T00:36:33;97217.91;;;18.36;64.23
39769;BME280;38939;47.824;14.642;2023-09-08T00:37:35;97212.88;;;18.34;64.04
39769;BME280;38939;47.824;14.642;2023-09-08T00:38:37;97220.53;;;18.36;64.06
39769;BME280;38939;47.824;14.642;2023-09-08T00:39:39;97219.28;;;18.38;64.04
39769;BME280;38939;47.824;14.642;2023-09-08T00:40:41;97216.97;;;18.42;64.00
39769;BME280;38939;47.824;14.642;2023-09-08T00:41:43;97216.69;;;18.44;63.85
39769;BME280;38939;47.824;14.642;2023-09-08T00:42:44;97210.13;;;18.46;63.88
39769;BME280;38939;47.824;14.642;2023-09-08T00:43:46;97214.31;;;18.42;64.28
39769;BME280;38939;47.824;14.642;2023-09-08T00:44:48;97222.47;;;18.41;63.90
39769;BME280;38939;47.824;14.642;2023-09-08T00:45:50;97218.50;;;18.38;63.94
39769;BME280;38939;47.824;14.642;2023-09-08T00:46:52;97213.91;;;18.33;64.00
39769;BME280;38939;47.824;14.642;2023-09-08T00:47:54;97217.13;;;18.35;63.83
39769;BME280;38939;47.824;14.642;2023-09-08T00:48:56;97212.34;;;18.32;63.86
39769;BME280;38939;47.824;14.642;2023-09-08T00:49:58;97215.22;;;18.31;63.90
39769;BME280;38939;47.824;14.642;2023-09-08T00:51:00;97220.72;;;18.29;63.82
39769;BME280;38939;47.824;14.642;2023-09-08T00:52:03;97216.75;;;18.27;63.81
39769;BME280;38939;47.824;14.642;2023-09-08T00:53:05;97209.84;;;18.26;63.96
39769;BME280;38939;47.824;14.642;2023-09-08T00:54:08;97214.66;;;18.29;64.22
39769;BME280;38939;47.824;14.642;2023-09-08T00:55:11;97205.66;;;18.30;64.13
39769;BME280;38939;47.824;14.642;2023-09-08T00:56:13;97209.41;;;18.34;64.25
39769;BME280;38939;47.824;14.642;2023-09-08T00:57:15;97211.50;;;18.32;63.54
39769;BME280;38939;47.824;14.642;2023-09-08T00:58:17;97207.28;;;18.31;63.91
39769;BME280;38939;47.824;14.642;2023-09-08T00:59:19;97204.41;;;18.32;63.67
39769;BME280;38939;47.824;14.642;2023-09-08T01:00:25;97205.19;;;18.33;63.72
39769;BME280;38939;47.824;14.642;2023-09-08T01:01:26;97207.84;;;18.33;63.13
39769;BME280;38939;47.824;14.642;2023-09-08T01:02:28;97198.81;;;18.29;63.60
39769;BME280;38939;47.824;14.642;2023-09-08T01:03:30;97211.78;;;18.30;63.50
39769;BME280;38939;47.824;14.642;2023-09-08T01:04:32;97199.91;;;18.33;63.87
39769;BME280;38939;47.824;14.642;2023-09-08T01:05:35;97207.59;;;18.34;63.63
39769;BME280;38939;47.824;14.642;2023-09-08T01:06:38;97204.97;;;18.34;63.54
39769;BME280;38939;47.824;14.642;2023-09-08T01:07:40;97208.88;;;18.32;63.33
39769;BME280;38939;47.824;14.642;2023-09-08T01:08:42;97200.94;;;18.32;63.46
39769;BME280;38939;47.824;14.642;2023-09-08T01:09:46;97202.78;;;18.31;63.17
39769;BME280;38939;47.824;14.642;2023-09-08T01:10:48;97200.94;;;18.32;63.05
39769;BME280;38939;47.824;14.642;2023-09-08T01:11:50;97205.66;;;18.30;63.30
39769;BME280;38939;47.824;14.642;2023-09-08T01:12:53;97202.00;;;18.31;62.93
39769;BME280;38939;47.824;14.642;2023-09-08T01:13:54;97202.56;;;18.33;63.00
39769;BME280;38939;47.824;14.642;2023-09-08T01:14:57;97203.34;;;18.33;63.09
39769;BME280;38939;47.824;14.642;2023-09-08T01:15:58;97208.41;;;18.35;63.33
39769;BME280;38939;47.824;14.642;2023-09-08T01:17:00;97201.03;;;18.37;62.76
39769;BME280;38939;47.824;14.642;2023-09-08T01:18:02;97198.94;;;18.39;62.93
39769;BME280;38939;47.824;14.642;2023-09-08T01:19:04;97198.94;;;18.39;63.25
39769;BME280;38939;47.824;14.642;2023-09-08T01:22:31;97199.72;;;18.39;62.60
39769;BME280;38939;47.824;14.642;2023-09-08T01:23:54;97209.50;;;18.39;62.82
39769;BME280;38939;47.824;14.642;2023-09-08T01:26:20;97202.63;;;18.38;62.72
39769;BME280;38939;47.824;14.642;2023-09-08T01:27:22;97209.50;;;18.39;62.53
39769;BME280;38939;47.824;14.642;2023-09-08T01:28:25;97206.78;;;18.34;62.45
39769;BME280;38939;47.824;14.642;2023-09-08T01:29:29;97202.56;;;18.33;62.66
39769;BME280;38939;47.824;14.642;2023-09-08T01:30:31;97212.06;;;18.34;62.27
39769;BME280;38939;47.824;14.642;2023-09-08T01:31:35;97205.50;;;18.36;62.66
39769;BME280;38939;47.824;14.642;2023-09-08T01:32:37;97202.31;;;18.34;62.25
39769;BME280;38939;47.824;14.642;2023-09-08T01:33:39;97206.78;;;18.34;62.18
39769;BME280;38939;47.824;14.642;2023-09-08T01:34:41;97209.69;;;18.32;62.28
39769;BME280;38939;47.824;14.642;2023-09-08T01:35:43;97200.69;;;18.33;62.45
39769;BME280;38939;47.824;14.642;2023-09-08T01:36:45;97205.75;;;18.35;62.33
39769;BME280;38939;47.824;14.642;2023-09-08T01:37:47;97203.66;;;18.37;62.47
39769;BME280;38939;47.824;14.642;2023-09-08T01:38:49;97194.94;;;18.36;62.38
39769;BME280;38939;47.824;14.642;2023-09-08T01:39:51;97199.41;;;18.36;61.90
39769;BME280;38939;47.824;14.642;2023-09-08T01:40:53;97202.38;;;18.39;62.20
39769;BME280;38939;47.824;14.642;2023-09-08T01:41:55;97193.84;;;18.32;61.98
39769;BME280;38939;47.824;14.642;2023-09-08T01:42:57;97194.06;;;18.31;62.27
39769;BME280;38939;47.824;14.642;2023-09-08T01:43:59;97187.19;;;18.30;62.12
39769;BME280;38939;47.824;14.642;2023-09-08T01:45:01;97191.44;;;18.31;62.41
39769;BME280;38939;47.824;14.642;2023-09-08T01:46:03;97187.69;;;18.27;62.05
39769;BME280;38939;47.824;14.642;2023-09-08T01:47:05;97200.88;;;18.27;62.72
39769;BME280;38939;47.824;14.642;2023-09-08T01:48:07;97190.31;;;18.27;62.66
39769;BME280;38939;47.824;14.642;2023-09-08T01:49:09;97186.63;;;18.28;62.67
39769;BME280;38939;47.824;14.642;2023-09-08T01:50:11;97196.41;;;18.27;62.48
39769;BME280;38939;47.824;14.642;2023-09-08T01:51:13;97195.28;;;18.23;62.59
39769;BME280;38939;47.824;14.642;2023-09-08T01:52:15;97194.72;;;18.21;62.76
39769;BME280;38939;47.824;14.642;2023-09-08T01:53:16;97194.72;;;18.21;62.77
39769;BME280;38939;47.824;14.642;2023-09-08T01:54:18;97191.84;;;18.23;63.07
39769;BME280;38939;47.824;14.642;2023-09-08T01:55:20;97193.44;;;18.24;62.90
39769;BME280;38939;47.824;14.642;2023-09-08T01:56:22;97196.91;;;18.24;62.82
39769;BME280;38939;47.824;14.642;2023-09-08T01:57:24;97188.72;;;18.26;62.81
39769;BME280;38939;47.824;14.642;2023-09-08T01:58:26;97195.59;;;18.27;62.59
39769;BME280;38939;47.824;14.642;2023-09-08T01:59:28;97194.50;;;18.23;62.44
39769;BME280;38939;47.824;14.642;2023-09-08T02:00:29;97192.41;;;18.25;62.46
39769;BME280;38939;47.824;14.642;2023-09-08T02:01:31;97188.72;;;18.26;62.61
39769;BME280;38939;47.824;14.642;2023-09-08T02:02:33;97199.28;;;18.26;62.56
39769;BME280;38939;47.824;14.642;2023-09-08T02:03:36;97197.19;;;18.28;62.35
39769;BME280;38939;47.824;14.642;2023-09-08T02:04:38;97191.63;;;18.24;62.53
39769;BME280;38939;47.824;14.642;2023-09-08T02:05:40;97191.63;;;18.24;62.54
39769;BME280;38939;47.824;14.642;2023-09-08T02:06:41;97192.88;;;18.22;62.35
39769;BME280;38939;47.824;14.642;2023-09-08T02:07:43;97197.59;;;18.19;62.24
39769;BME280;38939;47.824;14.642;2023-09-08T02:08:45;97195.53;;;18.22;62.45
39769;BME280;38939;47.824;14.642;2023-09-08T02:09:47;97192.09;;;18.21;62.64
39769;BME280;38939;47.824;14.642;2023-09-08T02:10:49;97190.78;;;18.24;62.54
39769;BME280;38939;47.824;14.642;2023-09-08T02:11:51;97190.00;;;18.23;62.35
39769;BME280;38939;47.824;14.642;2023-09-08T02:12:53;97191.63;;;18.24;62.39
39769;BME280;38939;47.824;14.642;2023-09-08T02:13:54;97184.72;;;18.23;62.51
39769;BME280;38939;47.824;14.642;2023-09-08T02:14:59;97194.50;;;18.23;62.34
39769;BME280;38939;47.824;14.642;2023-09-08T02:16:01;97194.19;;;18.19;62.55
39769;BME280;38939;47.824;14.642;2023-09-08T02:17:04;97186.19;;;18.14;62.68
39769;BME280;38939;47.824;14.642;2023-09-08T02:18:07;97190.19;;;18.16;62.61
39769;BME280;38939;47.824;14.642;2023-09-08T02:19:09;97189.41;;;18.16;62.81
39769;BME280;38939;47.824;14.642;2023-09-08T02:20:12;97187.00;;;18.14;62.55
39769;BME280;38939;47.824;14.642;2023-09-08T02:21:14;97192.28;;;18.14;62.62
39769;BME280;38939;47.824;14.642;2023-09-08T02:22:16;97186.13;;;18.09;62.62
39769;BME280;38939;47.824;14.642;2023-09-08T02:23:17;97189.53;;;18.09;62.88
39769;BME280;38939;47.824;14.642;2023-09-08T02:24:19;97181.06;;;18.07;62.59
39769;BME280;38939;47.824;14.642;2023-09-08T02:25:23;97188.19;;;18.07;62.86
39769;BME280;38939;47.824;14.642;2023-09-08T02:26:24;97188.66;;;18.04;62.53
39769;BME280;38939;47.824;14.642;2023-09-08T02:27:28;97186.53;;;18.01;62.85
39769;BME280;38939;47.824;14.642;2023-09-08T02:28:30;97189.41;;;17.99;62.98
39769;BME280;38939;47.824;14.642;2023-09-08T02:29:33;97191.47;;;17.97;62.86
39769;BME280;38939;47.824;14.642;2023-09-08T02:30:35;97192.53;;;17.96;62.96
39769;BME280;38939;47.824;14.642;2023-09-08T02:31:37;97187.81;;;17.98;62.84
39769;BME280;38939;47.824;14.642;2023-09-08T02:32:39;97191.47;;;17.97;63.16
39769;BME280;38939;47.824;14.642;2023-09-08T02:33:45;97192.78;;;17.94;62.84
39769;BME280;38939;47.824;14.642;2023-09-08T02:34:47;97192.22;;;17.92;62.85
39769;BME280;38939;47.824;14.642;2023-09-08T02:35:50;97192.44;;;17.91;62.70
39769;BME280;38939;47.824;14.642;2023-09-08T02:36:53;97192.44;;;17.91;62.86
39769;BME280;38939;47.824;14.642;2023-09-08T02:37:55;97191.84;;;17.84;63.15
39769;BME280;38939;47.824;14.642;2023-09-08T02:38:57;97180.59;;;17.76;63.14
39769;BME280;38939;47.824;14.642;2023-09-08T02:39:59;97178.50;;;17.78;63.25
39769;BME280;38939;47.824;14.642;2023-09-08T02:41:00;97184.13;;;17.82;63.33
39769;BME280;38939;47.824;14.642;2023-09-08T02:42:02;97181.00;;;17.85;63.19
39769;BME280;38939;47.824;14.642;2023-09-08T02:43:04;97182.63;;;17.86;62.98
39769;BME280;38939;47.824;14.642;2023-09-08T02:44:06;97184.22;;;17.87;63.19
39769;BME280;38939;47.824;14.642;2023-09-08T02:45:08;97179.97;;;17.86;62.90
39769;BME280;38939;47.824;14.642;2023-09-08T02:46:11;97179.97;;;17.86;63.05
39769;BME280;38939;47.824;14.642;2023-09-08T02:47:13;97183.91;;;17.84;63.03
39769;BME280;38939;47.824;14.642;2023-09-08T02:48:15;97182.28;;;17.83;63.18
39769;BME280;38939;47.824;14.642;2023-09-08T02:49:18;97183.91;;;17.84;63.09
39769;BME280;38939;47.824;14.642;2023-09-08T02:50:19;97179.31;;;17.79;63.11
39769;BME280;38939;47.824;14.642;2023-09-08T02:51:21;97180.59;;;17.76;63.46
39769;BME280;38939;47.824;14.642;2023-09-08T02:52:23;97182.69;;;17.74;63.27
39769;BME280;38939;47.824;14.642;2023-09-08T02:53:25;97186.03;;;17.70;63.45
39769;BME280;38939;47.824;14.642;2023-09-08T02:54:30;97181.56;;;17.70;63.58
39769;BME280;38939;47.824;14.642;2023-09-08T02:55:32;97187.63;;;17.71;63.57
39769;BME280;38939;47.824;14.642;2023-09-08T02:56:34;97179.47;;;17.72;63.27
39769;BME280;38939;47.824;14.642;2023-09-08T02:57:35;97175.53;;;17.75;63.43
39769;BME280;38939;47.824;14.642;2023-09-08T02:58:37;97185.78;;;17.71;63.14
39769;BME280;38939;47.824;14.642;2023-09-08T02:59:39;97180.50;;;17.71;63.13
39769;BME280;38939;47.824;14.642;2023-09-08T03:00:41;97176.84;;;17.72;63.51
39769;BME280;38939;47.824;14.642;2023-09-08T03:01:43;97186.59;;;17.72;63.56
39769;BME280;38939;47.824;14.642;2023-09-08T03:02:45;97179.47;;;17.72;63.38
39769;BME280;38939;47.824;14.642;2023-09-08T03:03:48;97173.72;;;17.75;63.38
39769;BME280;38939;47.824;14.642;2023-09-08T03:04:50;97176.59;;;17.74;63.12
39769;BME280;38939;47.824;14.642;2023-09-08T03:05:55;97182.69;;;17.74;63.05
39769;BME280;38939;47.824;14.642;2023-09-08T03:06:59;97179.00;;;17.75;63.24
39769;BME280;38939;47.824;14.642;2023-09-08T03:08:01;97183.47;;;17.75;63.25
39769;BME280;38939;47.824;14.642;2023-09-08T03:09:03;97179.47;;;17.72;62.81
39769;BME280;38939;47.824;14.642;2023-09-08T03:10:05;97186.59;;;17.72;63.08
39769;BME280;38939;47.824;14.642;2023-09-08T03:11:08;97181.78;;;17.69;63.25
39769;BME280;38939;47.824;14.642;2023-09-08T03:12:10;97181.47;;;17.65;63.62
39769;BME280;38939;47.824;14.642;2023-09-08T03:13:12;97182.50;;;17.64;63.74
39769;BME280;38939;47.824;14.642;2023-09-08T03:14:14;97181.97;;;17.62;63.88
39769;BME280;38939;47.824;14.642;2023-09-08T03:15:16;97187.69;;;17.59;63.81
39769;BME280;38939;47.824;14.642;2023-09-08T03:16:18;97186.84;;;17.53;64.20
39769;BME280;38939;47.824;14.642;2023-09-08T03:17:19;97183.88;;;17.50;64.07
39769;BME280;38939;47.824;14.642;2023-09-08T03:18:21;97176.28;;;17.53;63.90
39769;BME280;38939;47.824;14.642;2023-09-08T03:19:23;97187.63;;;17.54;64.24
39769;BME280;38939;47.824;14.642;2023-09-08T03:20:25;97184.09;;;17.48;64.16
39769;BME280;38939;47.824;14.642;2023-09-08T03:21:28;97181.63;;;17.42;64.16
39769;BME280;38939;47.824;14.642;2023-09-08T03:22:29;97175.31;;;17.43;64.21
39769;BME280;38939;47.824;14.642;2023-09-08T03:23:31;97177.72;;;17.44;64.07
39769;BME280;38939;47.824;14.642;2023-09-08T03:24:33;97177.47;;;17.46;64.00
39769;BME280;38939;47.824;14.642;2023-09-08T03:25:35;97189.38;;;17.48;64.02
39769;BME280;38939;47.824;14.642;2023-09-08T03:26:37;97194.44;;;17.50;64.06
39769;BME280;38939;47.824;14.642;2023-09-08T03:27:41;97186.41;;;17.45;63.73
39769;BME280;38939;47.824;14.642;2023-09-08T03:28:44;97176.59;;;17.40;63.63
39769;BME280;38939;47.824;14.642;2023-09-08T03:29:46;97186.81;;;17.36;63.97
39769;BME280;38939;47.824;14.642;2023-09-08T03:30:47;97182.59;;;17.35;64.07
39769;BME280;38939;47.824;14.642;2023-09-08T03:31:49;97175.69;;;17.34;64.14
39769;BME280;38939;47.824;14.642;2023-09-08T03:32:52;97189.03;;;17.28;64.27
39769;BME280;38939;47.824;14.642;2023-09-08T03:33:53;97183.44;;;17.24;64.43
39769;BME280;38939;47.824;14.642;2023-09-08T03:34:56;97184.22;;;17.25;64.49
39769;BME280;38939;47.824;14.642;2023-09-08T03:35:58;97185.84;;;17.26;64.29
39769;BME280;38939;47.824;14.642;2023-09-08T03:37:00;97178.72;;;17.26;64.33
39769;BME280;38939;47.824;14.642;2023-09-08T03:38:02;97190.88;;;17.27;64.61
39769;BME280;38939;47.824;14.642;2023-09-08T03:39:03;97180.81;;;17.24;64.36
39769;BME280;38939;47.824;14.642;2023-09-08T03:40:05;97182.09;;;17.22;64.42
39769;BME280;38939;47.824;14.642;2023-09-08T03:41:08;97177.81;;;17.20;64.59
39769;BME280;38939;47.824;14.642;2023-09-08T03:42:10;97179.22;;;17.23;64.25
39769;BME280;38939;47.824;14.642;2023-09-08T03:43:12;97178.94;;;17.25;64.53
39769;BME280;38939;47.824;14.642;2023-09-08T03:44:14;97173.13;;;17.23;64.26
39769;BME280;38939;47.824;14.642;2023-09-08T03:45:15;97170.25;;;17.24;64.33
39769;BME280;38939;47.824;14.642;2023-09-08T03:46:18;97175.75;;;17.23;64.31
39769;BME280;38939;47.824;14.642;2023-09-08T03:47:19;97176.69;;;17.16;64.14
39769;BME280;38939;47.824;14.642;2023-09-08T03:48:21;97169.50;;;17.12;64.42
39769;BME280;38939;47.824;14.642;2023-09-08T03:49:23;97171.91;;;17.13;64.50
39769;BME280;38939;47.824;14.642;2023-09-08T03:50:25;97177.19;;;17.13;64.32
39769;BME280;38939;47.824;14.642;2023-09-08T03:51:27;97174.78;;;17.12;64.52
39769;BME280;38939;47.824;14.642;2023-09-08T03:52:30;97175.84;;;17.11;64.36
39769;BME280;38939;47.824;14.642;2023-09-08T03:53:31;97170.56;;;17.11;64.39
39769;BME280;38939;47.824;14.642;2023-09-08T03:54:35;97178.47;;;17.11;64.57
39769;BME280;38939;47.824;14.642;2023-09-08T03:55:38;97174.22;;;17.10;64.52
39769;BME280;38939;47.824;14.642;2023-09-08T03:56:40;97174.22;;;17.10;64.30
39769;BME280;38939;47.824;14.642;2023-09-08T03:57:42;97182.03;;;17.05;64.42
39769;BME280;38939;47.824;14.642;2023-09-08T03:58:44;97173.00;;;17.00;64.32
39769;BME280;38939;47.824;14.642;2023-09-08T03:59:46;97174.38;;;17.03;64.41
39769;BME280;38939;47.824;14.642;2023-09-08T04:00:48;97176.75;;;17.05;64.69
39769;BME280;38939;47.824;14.642;2023-09-08T04:01:50;97177.34;;;17.07;64.58
39769;BME280;38939;47.824;14.642;2023-09-08T04:02:52;97177.91;;;17.09;64.54
39769;BME280;38939;47.824;14.642;2023-09-08T04:03:54;97188.91;;;17.06;64.61
39769;BME280;38939;47.824;14.642;2023-09-08T04:04:56;97177.81;;;17.04;64.48
39769;BME280;38939;47.824;14.642;2023-09-08T04:05:58;97183.31;;;17.02;64.47
39769;BME280;38939;47.824;14.642;2023-09-08T04:07:00;97178.81;;;17.03;64.28
39769;BME280;38939;47.824;14.642;2023-09-08T04:08:02;97186.44;;;16.99;64.77
39769;BME280;38939;47.824;14.642;2023-09-08T04:09:04;97177.13;;;16.96;64.54
39769;BME280;38939;47.824;14.642;2023-09-08T04:10:06;97180.81;;;16.95;64.84
39769;BME280;38939;47.824;14.642;2023-09-08T04:11:08;97184.75;;;16.93;64.77
39769;BME280;38939;47.824;14.642;2023-09-08T04:12:10;97178.66;;;16.92;65.29
39769;BME280;38939;47.824;14.642;2023-09-08T04:13:12;97180.81;;;16.95;64.85
39769;BME280;38939;47.824;14.642;2023-09-08T04:14:14;97185.03;;;16.96;64.58
39769;BME280;38939;47.824;14.642;2023-09-08T04:15:16;97184.25;;;16.96;64.81
39769;BME280;38939;47.824;14.642;2023-09-08T04:16:18;97185.03;;;16.96;64.70
39769;BME280;38939;47.824;14.642;2023-09-08T04:17:20;97181.38;;;16.97;64.63
39769;BME280;38939;47.824;14.642;2023-09-08T04:18:22;97186.56;;;16.92;64.70
39769;BME280;38939;47.824;14.642;2023-09-08T04:19:27;97182.00;;;16.88;64.91
39769;BME280;38939;47.824;14.642;2023-09-08T04:20:29;97181.91;;;16.83;65.16
39769;BME280;38939;47.824;14.642;2023-09-08T04:21:30;97181.09;;;16.82;65.40
39769;BME280;38939;47.824;14.642;2023-09-08T04:22:32;97184.41;;;16.77;65.38
39769;BME280;38939;47.824;14.642;2023-09-08T04:23:35;97179.94;;;16.78;65.24
39769;BME280;38939;47.824;14.642;2023-09-08T04:24:37;97190.94;;;16.75;65.45
39769;BME280;38939;47.824;14.642;2023-09-08T04:25:39;97180.19;;;16.76;65.27
39769;BME280;38939;47.824;14.642;2023-09-08T04:26:41;97183.63;;;16.77;65.31
39769;BME280;38939;47.824;14.642;2023-09-08T04:27:43;97195.50;;;16.79;65.06
39769;BME280;38939;47.824;14.642;2023-09-08T04:28:46;97185.19;;;16.78;64.84
39769;BME280;38939;47.824;14.642;2023-09-08T04:29:48;97193.09;;;16.78;65.06
39769;BME280;38939;47.824;14.642;2023-09-08T04:30:50;97194.59;;;16.74;65.02
39769;BME280;38939;47.824;14.642;2023-09-08T04:31:51;97195.16;;;16.76;64.84
39769;BME280;38939;47.824;14.642;2023-09-08T04:32:53;97193.59;;;16.75;65.06
39769;BME280;38939;47.824;14.642;2023-09-08T04:33:55;97194.38;;;16.75;65.00
39769;BME280;38939;47.824;14.642;2023-09-08T04:34:57;97198.06;;;16.74;64.93
39769;BME280;38939;47.824;14.642;2023-09-08T04:35:59;97196.44;;;16.73;64.98
39769;BME280;38939;47.824;14.642;2023-09-08T04:37:01;97195.66;;;16.73;64.97
39769;BME280;38939;47.824;14.642;2023-09-08T04:38:03;97200.44;;;16.76;64.76
39769;BME280;38939;47.824;14.642;2023-09-08T04:39:05;97200.00;;;16.79;64.81
39769;BME280;38939;47.824;14.642;2023-09-08T04:40:07;97205.03;;;16.80;64.97
39769;BME280;38939;47.824;14.642;2023-09-08T04:41:09;97193.66;;;16.80;64.95
39769;BME280;38939;47.824;14.642;2023-09-08T04:42:11;97199.53;;;16.82;64.81
39769;BME280;38939;47.824;14.642;2023-09-08T04:43:14;97195.09;;;16.83;64.71
39769;BME280;38939;47.824;14.642;2023-09-08T04:44:16;97193.25;;;16.83;64.65
39769;BME280;38939;47.824;14.642;2023-09-08T04:45:18;97195.31;;;16.81;64.64
39769;BME280;38939;47.824;14.642;2023-09-08T04:46:20;97201.56;;;16.80;64.57
39769;BME280;38939;47.824;14.642;2023-09-08T04:47:22;97199.75;;;16.80;64.71
39769;BME280;38939;47.824;14.642;2023-09-08T04:48:23;97203.22;;;16.81;64.89
39769;BME280;38939;47.824;14.642;2023-09-08T04:49:25;97196.22;;;16.75;64.95
39769;BME280;38939;47.824;14.642;2023-09-08T04:50:27;97202.50;;;16.74;64.86
39769;BME280;38939;47.824;14.642;2023-09-08T04:51:29;97212.03;;;16.75;64.96
39769;BME280;38939;47.824;14.642;2023-09-08T04:52:31;97206.19;;;16.73;65.15
39769;BME280;38939;47.824;14.642;2023-09-08T04:53:33;97212.47;;;16.72;64.97
39769;BME280;38939;47.824;14.642;2023-09-08T04:54:34;97204.59;;;16.72;65.06
39769;BME280;38939;47.824;14.642;2023-09-08T04:55:36;97210.91;;;16.71;65.08
39769;BME280;38939;47.824;14.642;2023-09-08T04:56:38;97206.41;;;16.71;65.01
39769;BME280;38939;47.824;14.642;2023-09-08T04:57:41;97209.84;;;16.72;64.82
39769;BME280;38939;47.824;14.642;2023-09-08T04:58:43;97216.75;;;16.73;64.93
39769;BME280;38939;47.824;14.642;2023-09-08T04:59:45;97218.09;;;16.75;64.79
39769;BME280;38939;47.824;14.642;2023-09-08T05:00:47;97220.50;;;16.77;64.52
39769;BME280;38939;47.824;14.642;2023-09-08T05:01:49;97221.06;;;16.79;64.71
39769;BME280;38939;47.824;14.642;2023-09-08T05:02:51;97222.47;;;16.82;65.02
39769;BME280;38939;47.824;14.642;2023-09-08T05:03:53;97212.72;;;16.82;64.55
39769;BME280;38939;47.824;14.642;2023-09-08T05:04:55;97222.81;;;16.85;64.60
39769;BME280;38939;47.824;14.642;2023-09-08T05:05:57;97221.19;;;16.84;65.20
39769;BME280;38939;47.824;14.642;2023-09-08T05:06:59;97223.81;;;16.84;64.99
39769;BME280;38939;47.824;14.642;2023-09-08T05:08:01;97220.41;;;16.84;65.19
39769;BME280;38939;47.824;14.642;2023-09-08T05:09:03;97218.81;;;16.83;64.95
39769;BME280;38939;47.824;14.642;2023-09-08T05:10:05;97218.00;;;16.82;64.88
39769;BME280;38939;47.824;14.642;2023-09-08T05:11:07;97226.94;;;16.81;64.86
39769;BME280;38939;47.824;14.642;2023-09-08T05:12:08;97222.91;;;16.78;64.61
39769;BME280;38939;47.824;14.642;2023-09-08T05:13:10;97228.41;;;16.77;65.20
39769;BME280;38939;47.824;14.642;2023-09-08T05:14:30;97227.50;;;16.71;65.52
39769;BME280;38939;47.824;14.642;2023-09-08T05:15:32;97234.06;;;16.69;65.87
39769;BME280;38939;47.824;14.642;2023-09-08T05:16:35;97227.16;;;16.68;65.49
39769;BME280;38939;47.824;14.642;2023-09-08T05:17:39;97231.41;;;16.69;65.45
39769;BME280;38939;47.824;14.642;2023-09-08T05:18:41;97229.78;;;16.68;65.51
39769;BME280;38939;47.824;14.642;2023-09-08T05:19:43;97236.13;;;16.67;65.64
39769;BME280;38939;47.824;14.642;2023-09-08T05:20:47;97234.16;;;16.62;65.62
39769;BME280;38939;47.824;14.642;2023-09-08T05:21:50;97238.28;;;16.58;65.86
39769;BME280;38939;47.824;14.642;2023-09-08T05:22:52;97229.81;;;16.56;65.61
39769;BME280;38939;47.824;14.642;2023-09-08T05:23:53;97242.75;;;16.57;66.06
39769;BME280;38939;47.824;14.642;2023-09-08T05:24:56;97248.16;;;16.51;66.69
39769;BME280;38939;47.824;14.642;2023-09-08T05:25:58;97242.53;;;16.47;66.30
39769;BME280;38939;47.824;14.642;2023-09-08T05:27:00;97243.03;;;16.44;66.05
39769;BME280;38939;47.824;14.642;2023-09-08T05:28:02;97237.19;;;16.42;66.19
39769;BME280;38939;47.824;14.642;2023-09-08T05:29:04;97239.81;;;16.42;66.16